Time;durP1;ratioP1;P1;durP2;ratioP2;P2;SDS_P1;SDS_P2;PMS_P1;PMS_P2;Temp;Humidity;BMP_temperature;BMP_pressure;BME280_temperature;BME280_humidity;BME280_pressure;Samples;Min_cycle;Max_cycle;Signal;HPM_P1;HPM_P2
2022/08/08 00:01:34;;;;;;;1.92;1.35;;;19.70;59.60;;;;;;5011177;28;20180;-75
2022/08/08 00:04:13;;;;;;;2.20;1.40;;;19.70;59.90;;;;;;5004377;28;20206;-76
2022/08/08 00:06:54;;;;;;;2.85;1.35;;;19.60;59.90;;;;;;4994200;28;20301;-72
2022/08/08 00:09:27;;;;;;;2.95;1.23;;;19.60;60.10;;;;;;4997618;28;20270;-77
2022/08/08 00:12:05;;;;;;;1.50;1.10;;;19.60;59.40;;;;;;5000774;28;20284;-75
2022/08/08 00:14:39;;;;;;;1.83;1.30;;;19.50;60.50;;;;;;5000812;28;20202;-76
2022/08/08 00:17:14;;;;;;;1.70;1.25;;;19.50;60.20;;;;;;5001418;28;20175;-75
2022/08/08 00:19:57;;;;;;;1.50;1.00;;;19.50;60.30;;;;;;4996004;28;20196;-75
2022/08/08 00:22:44;;;;;;;1.73;1.23;;;19.40;60.40;;;;;;4994746;28;20175;-76
2022/08/08 00:25:18;;;;;;;1.63;1.15;;;19.40;60.70;;;;;;4992965;28;20218;-76
2022/08/08 00:27:44;;;;;;;2.67;1.30;;;19.40;60.20;;;;;;4995307;28;20218;-77
2022/08/08 00:30:12;;;;;;;1.50;1.10;;;19.30;60.00;;;;;;4996850;28;20190;-76
2022/08/08 00:32:50;;;;;;;1.65;1.00;;;19.30;60.30;;;;;;4980257;28;20199;-77
2022/08/08 00:35:19;;;;;;;1.70;1.00;;;19.20;61.10;;;;;;4996649;28;20183;-77
2022/08/08 00:38:18;;;;;;;1.58;1.10;;;19.20;60.60;;;;;;4998072;28;20246;-76
2022/08/08 00:41:20;;;;;;;2.15;1.25;;;19.10;61.50;;;;;;5004799;28;20302;-75
2022/08/08 00:44:07;;;;;;;1.00;0.90;;;19.10;61.80;;;;;;4990382;28;20214;-76
2022/08/08 00:46:45;;;;;;;1.48;0.95;;;19.00;61.80;;;;;;5013428;28;20207;-76
2022/08/08 00:49:21;;;;;;;1.58;1.10;;;18.90;61.10;;;;;;5004597;28;20182;-72
2022/08/08 00:52:21;;;;;;;1.20;1.00;;;18.90;61.40;;;;;;4995157;28;20270;-74
2022/08/08 00:55:10;;;;;;;1.67;1.10;;;18.80;62.40;;;;;;5009918;28;20242;-76
2022/08/08 00:57:41;;;;;;;1.92;1.20;;;18.80;62.30;;;;;;4989813;28;20195;-75
2022/08/08 01:00:09;;;;;;;1.80;0.90;;;18.70;62.00;;;;;;5002018;28;20190;-76
2022/08/08 01:02:54;;;;;;;1.30;1.17;;;18.60;62.10;;;;;;5000593;28;20175;-76
2022/08/08 01:05:44;;;;;;;1.85;1.20;;;18.60;63.20;;;;;;4998208;28;20219;-76
2022/08/08 01:08:34;;;;;;;3.30;1.15;;;18.50;63.30;;;;;;5008394;28;20185;-75
2022/08/08 01:11:33;;;;;;;1.77;1.15;;;18.50;63.20;;;;;;5007564;28;20214;-76
2022/08/08 01:14:11;;;;;;;1.60;1.10;;;18.40;63.90;;;;;;5001343;28;20235;-76
2022/08/08 01:16:49;;;;;;;1.90;1.10;;;18.30;62.90;;;;;;5010934;28;20211;-76
2022/08/08 01:19:32;;;;;;;1.38;1.08;;;18.20;64.10;;;;;;5011954;28;20195;-76
2022/08/08 01:22:31;;;;;;;1.95;1.30;;;18.20;64.20;;;;;;5010815;28;20402;-75
2022/08/08 01:24:59;;;;;;;1.73;1.20;;;18.10;64.60;;;;;;5020697;28;20203;-72
2022/08/08 01:28:07;;;;;;;1.40;1.13;;;18.10;64.10;;;;;;5012873;28;20195;-74
2022/08/08 01:31:02;;;;;;;2.33;1.10;;;18.00;65.30;;;;;;5019947;28;20249;-74
2022/08/08 01:33:52;;;;;;;1.75;1.10;;;18.00;65.20;;;;;;5012570;28;20187;-76
2022/08/08 01:36:39;;;;;;;1.20;0.93;;;18.00;65.20;;;;;;4998066;28;20168;-75
2022/08/08 01:39:26;;;;;;;2.22;1.13;;;17.90;65.00;;;;;;5001769;28;20682;-76
2022/08/08 01:42:19;;;;;;;1.10;1.00;;;17.90;65.40;;;;;;4995126;28;20183;-77
2022/08/08 01:45:19;;;;;;;1.67;1.10;;;17.80;65.80;;;;;;5006967;28;20195;-76
2022/08/08 01:48:38;;;;;;;1.23;1.05;;;17.80;66.00;;;;;;5010220;28;20206;-74
2022/08/08 01:51:07;;;;;;;2.13;1.20;;;17.70;66.40;;;;;;5003657;28;20190;-75
2022/08/08 01:53:55;;;;;;;1.30;1.20;;;17.70;65.30;;;;;;5008086;28;20277;-76
2022/08/08 01:56:26;;;;;;;1.58;1.10;;;17.60;66.70;;;;;;4994395;28;20188;-76
2022/08/08 01:59:01;;;;;;;1.23;1.10;;;17.60;66.30;;;;;;4998531;28;20191;-76
2022/08/08 02:01:55;;;;;;;2.13;1.15;;;17.60;66.90;;;;;;5009469;28;20193;-76
2022/08/08 02:04:29;;;;;;;1.42;1.17;;;17.60;67.40;;;;;;4995525;28;20175;-76
2022/08/08 02:07:02;;;;;;;1.55;1.10;;;17.50;67.20;;;;;;5012938;28;20219;-77
2022/08/08 02:09:41;;;;;;;1.35;1.20;;;17.50;67.40;;;;;;5009309;28;20182;-76
2022/08/08 02:12:26;;;;;;;1.50;1.15;;;17.50;67.40;;;;;;4995692;28;20249;-74
2022/08/08 02:15:08;;;;;;;1.48;1.10;;;17.50;68.30;;;;;;5002104;28;20207;-75
2022/08/08 02:17:45;;;;;;;2.13;1.45;;;17.50;68.80;;;;;;4995422;28;20175;-76
2022/08/08 02:23:56;;;;;;;4.03;1.30;;;17.50;68.80;;;;;;4992368;28;20224;-74
2022/08/08 02:26:47;;;;;;;1.30;1.20;;;17.40;69.10;;;;;;4994642;28;20217;-75
2022/08/08 02:29:19;;;;;;;2.20;1.40;;;17.40;68.90;;;;;;4994734;28;20175;-76
2022/08/08 02:32:08;;;;;;;1.88;1.27;;;17.40;68.70;;;;;;5000075;28;20192;-75
2022/08/08 02:34:57;;;;;;;1.65;1.30;;;17.30;69.40;;;;;;5005292;28;20190;-74
2022/08/08 02:37:37;;;;;;;1.92;1.50;;;17.20;69.00;;;;;;5010103;28;20204;-76
2022/08/08 02:40:21;;;;;;;1.38;1.10;;;17.20;69.80;;;;;;4994461;28;20215;-75
2022/08/08 02:43:28;;;;;;;2.40;1.55;;;17.10;69.10;;;;;;5009961;28;20245;-76
2022/08/08 02:46:18;;;;;;;3.17;1.40;;;17.10;70.70;;;;;;5001759;28;20215;-76
2022/08/08 02:49:22;;;;;;;2.50;1.30;;;17.00;70.20;;;;;;5010681;28;20167;-75
2022/08/08 02:51:56;;;;;;;3.83;1.50;;;16.90;71.30;;;;;;4996296;28;20294;-75
2022/08/08 02:55:02;;;;;;;1.85;1.38;;;16.90;71.10;;;;;;4999628;28;20190;-74
2022/08/08 02:57:54;;;;;;;1.73;1.33;;;16.80;71.60;;;;;;5009627;28;20303;-73
2022/08/08 03:00:47;;;;;;;2.88;1.73;;;16.80;71.40;;;;;;5009270;28;20211;-74
2022/08/08 03:03:21;;;;;;;2.75;1.45;;;16.70;72.40;;;;;;5006115;28;20245;-75
2022/08/08 03:06:05;;;;;;;2.63;1.70;;;16.70;71.50;;;;;;4999434;28;20210;-74
2022/08/08 03:09:11;;;;;;;2.30;1.38;;;16.70;73.20;;;;;;5009080;28;20227;-76
2022/08/08 03:12:01;;;;;;;2.45;1.40;;;16.60;73.30;;;;;;4994384;28;20175;-75
2022/08/08 03:14:50;;;;;;;2.00;1.50;;;16.60;73.20;;;;;;4992294;28;20282;-71
2022/08/08 03:17:32;;;;;;;1.95;1.50;;;16.60;73.80;;;;;;5009246;28;20211;-76
2022/08/08 03:20:04;;;;;;;2.08;1.60;;;16.50;73.50;;;;;;4980890;28;20191;-76
2022/08/08 03:22:30;;;;;;;4.10;1.63;;;16.50;73.90;;;;;;4996714;28;20178;-75
2022/08/08 03:24:57;;;;;;;3.05;1.63;;;16.50;73.00;;;;;;5003341;28;20237;-75
2022/08/08 03:27:36;;;;;;;3.85;1.70;;;16.40;73.30;;;;;;4998253;28;20253;-76
2022/08/08 03:30:11;;;;;;;2.20;1.58;;;16.40;75.00;;;;;;4994872;28;20187;-75
2022/08/08 03:35:25;;;;;;;2.10;1.58;;;16.40;74.40;;;;;;4994897;28;20194;-76
2022/08/08 03:37:52;;;;;;;2.10;1.52;;;16.40;74.60;;;;;;4994112;28;20191;-74
2022/08/08 03:40:23;;;;;;;1.88;1.45;;;16.30;74.80;;;;;;4996333;28;20171;-73
2022/08/08 03:42:52;;;;;;;2.28;1.70;;;16.30;75.40;;;;;;4994274;28;20183;-74
2022/08/08 03:45:19;;;;;;;3.75;1.85;;;16.30;75.40;;;;;;4993867;28;20203;-75
2022/08/08 03:47:55;;;;;;;2.97;1.98;;;16.30;75.80;;;;;;4993760;28;20180;-75
2022/08/08 03:50:26;;;;;;;1.58;1.42;;;16.30;77.30;;;;;;4994139;28;20182;-75
2022/08/08 03:52:53;;;;;;;3.85;1.75;;;16.20;76.40;;;;;;4994680;28;20293;-74
2022/08/08 03:55:20;;;;;;;3.78;1.77;;;16.20;76.90;;;;;;4995274;28;20180;-76
2022/08/08 03:57:49;;;;;;;2.08;1.65;;;16.20;77.60;;;;;;4997943;28;20187;-74
2022/08/08 04:00:18;;;;;;;3.20;2.05;;;16.10;77.90;;;;;;4993668;28;20250;-75
2022/08/08 04:02:58;;;;;;;2.38;1.85;;;16.10;78.10;;;;;;4991200;28;20207;-76
2022/08/08 04:05:25;;;;;;;2.60;2.05;;;16.10;79.30;;;;;;4999737;28;20373;-71
2022/08/08 04:07:51;;;;;;;4.93;2.25;;;16.10;78.90;;;;;;4995300;28;20194;-73
2022/08/08 04:10:17;;;;;;;3.80;2.08;;;16.00;79.00;;;;;;4993933;28;20210;-74
2022/08/08 04:12:45;;;;;;;3.70;2.05;;;16.00;79.50;;;;;;4995357;28;20309;-74
2022/08/08 04:15:13;;;;;;;3.65;1.90;;;16.00;79.70;;;;;;5001433;28;20189;-75
2022/08/08 04:17:39;;;;;;;2.47;1.83;;;16.00;80.60;;;;;;4995502;28;20243;-76
2022/08/08 04:20:07;;;;;;;2.80;2.00;;;16.00;80.50;;;;;;4992700;28;20241;-74
2022/08/08 04:22:33;;;;;;;6.25;2.25;;;16.00;81.00;;;;;;4992122;28;20191;-77
2022/08/08 04:25:02;;;;;;;2.50;2.08;;;16.00;81.30;;;;;;4994760;28;20222;-75
2022/08/08 04:27:27;;;;;;;3.38;2.03;;;16.00;82.10;;;;;;4999714;28;20286;-73
2022/08/08 04:29:53;;;;;;;2.58;2.05;;;16.00;81.90;;;;;;4995944;28;20262;-77
2022/08/08 04:32:19;;;;;;;3.83;2.17;;;16.00;82.70;;;;;;4995636;28;21000;-76
2022/08/08 04:34:45;;;;;;;2.30;2.10;;;16.00;82.80;;;;;;4991025;28;20207;-76
2022/08/08 04:37:11;;;;;;;3.30;2.17;;;16.00;83.20;;;;;;4993500;28;20187;-75
2022/08/08 04:39:37;;;;;;;3.25;2.17;;;15.90;83.50;;;;;;4994649;28;20179;-74
2022/08/08 04:42:03;;;;;;;3.30;2.30;;;15.90;83.80;;;;;;4991737;28;20274;-77
2022/08/08 04:44:34;;;;;;;2.95;2.10;;;15.90;84.50;;;;;;4994104;28;20254;-75
2022/08/08 04:46:59;;;;;;;4.32;2.15;;;15.90;85.10;;;;;;4991412;28;20198;-76
2022/08/08 04:49:25;;;;;;;2.95;2.08;;;16.00;85.30;;;;;;4993014;28;20196;-76
2022/08/08 04:51:51;;;;;;;3.35;2.20;;;16.00;85.40;;;;;;4994755;28;20207;-67
2022/08/08 04:54:19;;;;;;;2.65;2.15;;;15.90;85.60;;;;;;4994845;28;20203;-74
2022/08/08 04:56:44;;;;;;;3.78;2.33;;;15.90;86.70;;;;;;4993680;28;20194;-76
2022/08/08 04:59:12;;;;;;;2.65;2.10;;;15.90;86.60;;;;;;4996721;28;20335;-74
2022/08/08 05:01:38;;;;;;;3.25;2.17;;;15.90;86.90;;;;;;4996970;28;20498;-75
2022/08/08 05:04:08;;;;;;;5.32;2.30;;;15.90;87.10;;;;;;4998286;28;20199;-76
2022/08/08 05:06:34;;;;;;;3.13;2.08;;;15.90;87.90;;;;;;4998736;28;20273;-76
2022/08/08 05:09:00;;;;;;;3.25;2.15;;;16.00;88.80;;;;;;4997912;28;20191;-75
2022/08/08 05:11:25;;;;;;;2.45;2.20;;;15.90;88.50;;;;;;4995856;28;20207;-77
2022/08/08 05:13:54;;;;;;;2.72;2.13;;;15.90;88.90;;;;;;4997482;28;20187;-76
2022/08/08 05:16:22;;;;;;;3.78;2.30;;;15.90;89.30;;;;;;4997788;28;20175;-73
2022/08/08 05:18:50;;;;;;;3.05;2.45;;;15.90;89.60;;;;;;4999776;28;20172;-75
2022/08/08 05:21:15;;;;;;;3.35;2.40;;;15.90;90.10;;;;;;5000638;28;20175;-75
2022/08/08 05:23:41;;;;;;;2.83;2.15;;;15.90;90.30;;;;;;4999130;28;20179;-76
2022/08/08 05:26:06;;;;;;;2.55;2.05;;;15.90;90.40;;;;;;4995756;28;20282;-76
2022/08/08 05:28:32;;;;;;;2.90;2.30;;;16.00;90.60;;;;;;4998390;28;20231;-75
2022/08/08 05:31:00;;;;;;;2.78;2.30;;;16.00;90.80;;;;;;4996893;28;20202;-76
2022/08/08 05:33:28;;;;;;;2.72;2.30;;;16.00;91.00;;;;;;4996790;28;20187;-76
2022/08/08 05:35:57;;;;;;;3.03;2.30;;;16.00;91.30;;;;;;5003066;28;20210;-69
2022/08/08 05:38:27;;;;;;;4.32;2.55;;;16.10;91.50;;;;;;4999820;28;20183;-73
2022/08/08 05:40:57;;;;;;;3.80;2.35;;;16.10;91.90;;;;;;4997216;28;20258;-77
2022/08/08 05:43:28;;;;;;;2.97;2.50;;;16.10;92.20;;;;;;4997984;28;20223;-75
2022/08/08 05:46:02;;;;;;;3.67;2.40;;;16.20;92.30;;;;;;5000393;28;20235;-75
2022/08/08 05:48:28;;;;;;;3.40;2.40;;;16.20;92.60;;;;;;4992110;28;20180;-76
2022/08/08 05:50:56;;;;;;;4.90;2.20;;;16.30;92.50;;;;;;4997499;28;20246;-75
2022/08/08 05:53:24;;;;;;;3.17;2.30;;;16.30;92.70;;;;;;5019084;28;20241;-73
2022/08/08 05:55:55;;;;;;;3.42;2.60;;;16.30;92.90;;;;;;4989868;28;20180;-75
2022/08/08 05:58:27;;;;;;;5.05;2.30;;;16.40;93.20;;;;;;4985435;28;20240;-75
2022/08/08 06:01:03;;;;;;;2.92;2.50;;;16.50;94.00;;;;;;4998051;28;20351;-76
2022/08/08 06:03:30;;;;;;;2.78;2.28;;;16.50;93.90;;;;;;4998902;28;20186;-69
2022/08/08 06:05:57;;;;;;;4.90;2.20;;;16.60;94.00;;;;;;5000869;28;20207;-68
2022/08/08 06:08:30;;;;;;;3.67;2.38;;;16.70;94.20;;;;;;5019383;28;20176;-66
2022/08/08 06:10:57;;;;;;;4.55;2.58;;;16.80;94.10;;;;;;4999933;28;20183;-69
2022/08/08 06:13:30;;;;;;;4.28;2.28;;;16.90;94.40;;;;;;4998394;28;20191;-69
2022/08/08 06:15:56;;;;;;;3.17;2.15;;;16.90;94.70;;;;;;4994138;28;20183;-70
2022/08/08 06:18:24;;;;;;;4.45;2.50;;;17.00;94.50;;;;;;4995488;28;20253;-69
2022/08/08 06:20:55;;;;;;;3.60;2.30;;;17.10;94.60;;;;;;4992903;28;20205;-70
2022/08/08 06:23:22;;;;;;;3.72;2.33;;;17.20;95.10;;;;;;4995241;28;20198;-71
2022/08/08 06:26:05;;;;;;;2.72;2.33;;;17.20;94.80;;;;;;4995843;28;20349;-71
2022/08/08 06:28:44;;;;;;;3.40;2.50;;;17.30;96.10;;;;;;4993581;28;20294;-71
2022/08/08 06:31:13;;;;;;;2.60;2.35;;;17.40;96.10;;;;;;4994857;28;20263;-72
2022/08/08 06:34:05;;;;;;;4.75;2.53;;;17.40;95.50;;;;;;4994000;28;20210;-71
2022/08/08 06:36:35;;;;;;;3.92;2.22;;;17.50;96.10;;;;;;5002327;28;20183;-71
2022/08/08 06:39:02;;;;;;;3.72;2.55;;;17.60;95.80;;;;;;5010444;28;20203;-71
2022/08/08 06:41:32;;;;;;;3.08;2.55;;;17.70;95.50;;;;;;4995269;28;20867;-70
2022/08/08 06:44:03;;;;;;;6.18;2.80;;;17.80;95.70;;;;;;4995118;28;20295;-70
2022/08/08 06:46:31;;;;;;;4.80;2.80;;;17.90;95.90;;;;;;4995926;28;20210;-69
2022/08/08 06:48:58;;;;;;;3.53;2.75;;;18.00;95.80;;;;;;4995904;28;20187;-71
2022/08/08 06:51:24;;;;;;;2.70;2.40;;;18.00;95.60;;;;;;4994869;28;20191;-71
2022/08/08 06:53:49;;;;;;;3.25;2.92;;;18.10;95.70;;;;;;4995716;28;20202;-71
2022/08/08 06:56:15;;;;;;;4.10;3.15;;;18.10;95.70;;;;;;5011201;28;20188;-70
2022/08/08 06:58:45;;;;;;;4.60;3.20;;;18.20;96.00;;;;;;4996136;28;20206;-70
2022/08/08 07:01:12;;;;;;;4.72;2.95;;;18.30;96.10;;;;;;4994322;28;20187;-71
2022/08/08 07:03:50;;;;;;;3.80;2.83;;;18.30;96.00;;;;;;4994685;28;20202;-70
2022/08/08 07:06:24;;;;;;;4.47;3.00;;;18.40;96.30;;;;;;4993337;28;20263;-70
2022/08/08 07:09:00;;;;;;;5.50;2.72;;;18.50;96.10;;;;;;4997922;28;20191;-71
2022/08/08 07:11:29;;;;;;;5.13;2.97;;;18.60;96.30;;;;;;4993503;28;20179;-70
2022/08/08 07:14:00;;;;;;;3.33;2.88;;;18.70;96.00;;;;;;4995863;28;20206;-71
2022/08/08 07:16:43;;;;;;;6.57;3.10;;;18.80;96.10;;;;;;4993743;28;20218;-71
2022/08/08 07:19:13;;;;;;;4.72;2.88;;;18.90;96.20;;;;;;4997548;28;20179;-69
2022/08/08 07:21:56;;;;;;;3.15;2.65;;;18.90;95.80;;;;;;5010538;28;20202;-70
2022/08/08 07:24:33;;;;;;;5.90;3.58;;;19.00;95.90;;;;;;4994170;28;20202;-71
2022/08/08 07:27:02;;;;;;;5.43;2.60;;;19.00;95.90;;;;;;4994483;28;20206;-71
2022/08/08 07:29:28;;;;;;;3.25;2.42;;;19.10;95.70;;;;;;4994324;28;20199;-71
2022/08/08 07:31:55;;;;;;;6.75;3.05;;;19.10;95.80;;;;;;4996246;28;20180;-71
2022/08/08 07:34:22;;;;;;;3.75;2.42;;;19.20;95.80;;;;;;4994233;28;20179;-70
2022/08/08 07:36:48;;;;;;;4.63;2.95;;;19.30;95.90;;;;;;5009611;28;20187;-70
2022/08/08 07:39:17;;;;;;;3.15;2.78;;;19.40;95.90;;;;;;5011574;28;20175;-71
2022/08/08 07:41:48;;;;;;;3.95;2.70;;;19.40;95.80;;;;;;4994137;28;20289;-69
2022/08/08 07:44:17;;;;;;;3.90;2.85;;;19.50;95.80;;;;;;4994356;28;20191;-69
2022/08/08 07:46:50;;;;;;;3.88;2.60;;;19.50;95.70;;;;;;4993773;28;20203;-69
2022/08/08 07:49:16;;;;;;;4.22;2.90;;;19.60;95.80;;;;;;4993471;28;20219;-68
2022/08/08 07:51:42;;;;;;;5.10;2.42;;;19.60;95.60;;;;;;4994929;28;20183;-68
2022/08/08 07:54:23;;;;;;;3.10;2.70;;;19.70;95.60;;;;;;4994101;28;20179;-71
2022/08/08 07:57:15;;;;;;;2.80;2.47;;;19.80;95.70;;;;;;5008742;28;20241;-70
2022/08/08 08:00:08;;;;;;;4.00;2.53;;;19.90;95.80;;;;;;4982216;28;20190;-71
2022/08/08 08:02:41;;;;;;;4.40;3.03;;;20.00;95.70;;;;;;4993576;28;20215;-71
2022/08/08 08:05:23;;;;;;;3.65;2.58;;;20.00;95.50;;;;;;4993590;28;20524;-71
2022/08/08 08:07:57;;;;;;;3.15;2.30;;;20.10;95.50;;;;;;4994065;28;20316;-71
2022/08/08 08:10:26;;;;;;;3.65;2.10;;;20.20;95.40;;;;;;4993035;28;20186;-70
2022/08/08 08:13:19;;;;;;;2.25;1.85;;;20.30;95.50;;;;;;5009662;28;20187;-71
2022/08/08 08:16:07;;;;;;;3.22;2.00;;;20.30;95.70;;;;;;4994349;28;20203;-71
2022/08/08 08:18:38;;;;;;;3.53;2.13;;;20.40;95.20;;;;;;4989623;28;20277;-71
2022/08/08 08:21:08;;;;;;;4.47;2.20;;;20.60;95.10;;;;;;4998327;28;20269;-71
2022/08/08 08:23:37;;;;;;;4.70;2.20;;;20.70;95.00;;;;;;4992972;28;20199;-71
2022/08/08 08:26:05;;;;;;;2.55;2.10;;;20.80;95.00;;;;;;4993269;28;20214;-71
2022/08/08 08:28:31;;;;;;;3.72;2.15;;;20.90;94.80;;;;;;4992646;28;20187;-69
2022/08/08 08:31:01;;;;;;;3.35;2.40;;;20.90;94.70;;;;;;4993201;28;20268;-71
2022/08/08 08:33:27;;;;;;;3.17;2.10;;;21.00;94.50;;;;;;4996425;28;20274;-69
2022/08/08 08:35:53;;;;;;;3.00;1.85;;;21.10;94.30;;;;;;4999719;28;20237;-70
2022/08/08 08:38:18;;;;;;;3.42;2.15;;;21.20;94.10;;;;;;4996787;28;20175;-70
2022/08/08 08:40:44;;;;;;;4.97;1.90;;;21.30;94.00;;;;;;4999762;28;20181;-71
2022/08/08 08:43:10;;;;;;;3.45;2.20;;;21.40;93.90;;;;;;5000374;28;20206;-70
2022/08/08 08:45:36;;;;;;;3.83;2.20;;;21.50;93.60;;;;;;5000697;28;20203;-71
2022/08/08 08:48:05;;;;;;;2.88;2.30;;;21.50;93.50;;;;;;5001875;28;20210;-70
2022/08/08 08:50:36;;;;;;;3.13;1.92;;;21.60;93.10;;;;;;5001982;28;20199;-71
2022/08/08 08:53:07;;;;;;;2.88;1.80;;;21.70;93.10;;;;;;4999508;28;20225;-70
2022/08/08 08:55:38;;;;;;;2.78;2.15;;;21.80;93.10;;;;;;4999499;28;20183;-71
2022/08/08 08:58:07;;;;;;;3.70;2.30;;;21.90;93.20;;;;;;5000915;28;20278;-70
2022/08/08 09:00:37;;;;;;;3.60;2.30;;;22.00;93.00;;;;;;4998481;28;20184;-70
2022/08/08 09:03:09;;;;;;;3.45;2.20;;;22.10;92.90;;;;;;5001258;28;20289;-70
2022/08/08 09:05:42;;;;;;;2.30;2.00;;;22.30;92.90;;;;;;4999972;28;20218;-69
2022/08/08 09:08:11;;;;;;;2.53;1.70;;;22.30;92.30;;;;;;4999383;28;20198;-70
2022/08/08 09:10:40;;;;;;;2.83;1.95;;;22.40;92.50;;;;;;4998740;28;20198;-70
2022/08/08 09:13:11;;;;;;;3.92;2.05;;;22.40;92.10;;;;;;5000009;28;20175;-70
2022/08/08 09:15:37;;;;;;;4.00;1.85;;;22.50;92.00;;;;;;5001094;28;20213;-71
2022/08/08 09:18:06;;;;;;;2.28;1.70;;;22.60;92.20;;;;;;4998689;28;20250;-70
2022/08/08 09:20:32;;;;;;;2.25;1.80;;;22.70;92.10;;;;;;4999602;28;20187;-70
2022/08/08 09:23:01;;;;;;;3.95;2.05;;;22.80;92.10;;;;;;5000459;28;20237;-71
2022/08/08 09:25:27;;;;;;;3.17;1.73;;;22.90;91.60;;;;;;5002610;28;20529;-69
2022/08/08 09:27:53;;;;;;;3.13;1.58;;;23.10;91.40;;;;;;4996488;28;21164;-70
2022/08/08 09:30:20;;;;;;;3.70;1.38;;;23.20;91.20;;;;;;4998608;28;20214;-71
2022/08/08 09:32:50;;;;;;;3.55;1.67;;;23.30;90.90;;;;;;5001251;28;20178;-71
2022/08/08 09:35:19;;;;;;;1.95;1.38;;;23.40;90.40;;;;;;5000031;28;20181;-70
2022/08/08 09:37:52;;;;;;;1.85;1.50;;;23.50;90.60;;;;;;5001294;28;20227;-69
2022/08/08 09:40:21;;;;;;;2.85;1.58;;;23.60;90.20;;;;;;5016378;28;20193;-70
2022/08/08 09:42:49;;;;;;;3.72;1.50;;;23.70;90.20;;;;;;4999200;28;20254;-70
2022/08/08 09:45:18;;;;;;;2.70;1.58;;;23.80;90.10;;;;;;4999782;28;20211;-70
2022/08/08 09:47:48;;;;;;;1.60;1.35;;;23.90;89.10;;;;;;5011907;28;20223;-70
2022/08/08 09:50:15;;;;;;;1.67;1.10;;;24.00;88.40;;;;;;5000252;28;20211;-70
2022/08/08 09:52:52;;;;;;;1.52;1.13;;;24.10;88.60;;;;;;4999222;28;20233;-70
2022/08/08 09:55:19;;;;;;;2.47;1.33;;;24.20;87.60;;;;;;4997836;28;20171;-70
2022/08/08 09:57:50;;;;;;;1.10;1.00;;;24.30;87.80;;;;;;4995351;28;20203;-70
2022/08/08 10:00:21;;;;;;;1.70;1.10;;;24.40;87.20;;;;;;4996472;28;20179;-70
2022/08/08 10:02:51;;;;;;;1.80;1.27;;;24.50;87.30;;;;;;4997671;28;20211;-71
2022/08/08 10:05:23;;;;;;;1.80;1.20;;;24.60;86.50;;;;;;4995835;28;20215;-70
2022/08/08 10:07:51;;;;;;;2.60;1.27;;;24.80;85.90;;;;;;4998549;28;20187;-71
2022/08/08 10:10:27;;;;;;;1.63;1.20;;;24.90;84.80;;;;;;4999690;28;20187;-71
2022/08/08 10:12:57;;;;;;;1.48;1.25;;;24.90;83.40;;;;;;5012598;28;20325;-71
2022/08/08 10:15:25;;;;;;;2.40;1.20;;;25.10;83.90;;;;;;4995591;28;20183;-71
2022/08/08 10:17:52;;;;;;;2.65;1.10;;;25.20;84.20;;;;;;4983392;28;20221;-71
2022/08/08 10:20:18;;;;;;;1.63;1.17;;;25.30;83.90;;;;;;4996363;28;20483;-71
2022/08/08 10:23:05;;;;;;;2.08;1.30;;;25.40;83.70;;;;;;4995806;28;20194;-70
2022/08/08 10:25:38;;;;;;;2.95;1.20;;;25.60;82.00;;;;;;4995271;28;20296;-70
2022/08/08 10:28:06;;;;;;;2.60;1.25;;;26.00;81.60;;;;;;4995587;28;20202;-71
2022/08/08 10:30:34;;;;;;;1.58;1.20;;;26.50;79.50;;;;;;4995262;28;20179;-70
2022/08/08 10:33:00;;;;;;;4.47;1.33;;;26.90;79.60;;;;;;4995529;28;20262;-71
2022/08/08 10:35:29;;;;;;;2.03;1.30;;;27.40;77.50;;;;;;4995397;28;20183;-70
2022/08/08 10:37:57;;;;;;;1.75;1.10;;;27.70;75.60;;;;;;4993706;28;20183;-70
2022/08/08 10:40:27;;;;;;;2.15;1.25;;;28.00;75.20;;;;;;4992785;28;20198;-72
2022/08/08 10:42:59;;;;;;;1.17;0.90;;;28.30;74.40;;;;;;4994477;28;20179;-71
2022/08/08 10:45:29;;;;;;;1.58;1.08;;;28.60;73.60;;;;;;4995133;28;20214;-71
2022/08/08 10:47:59;;;;;;;2.65;1.17;;;28.80;72.00;;;;;;4995397;28;20246;-71
2022/08/08 10:50:36;;;;;;;1.85;1.17;;;29.00;70.50;;;;;;4995065;28;20191;-71
2022/08/08 10:53:06;;;;;;;4.13;1.10;;;29.00;69.10;;;;;;4994992;28;20277;-71
2022/08/08 10:55:33;;;;;;;2.08;0.93;;;29.10;69.00;;;;;;4994557;28;20183;-71
2022/08/08 10:58:07;;;;;;;2.97;1.30;;;29.20;69.10;;;;;;4996497;28;20198;-71
2022/08/08 11:00:33;;;;;;;1.98;1.10;;;29.40;67.20;;;;;;4991929;28;20179;-72
2022/08/08 11:03:11;;;;;;;1.02;0.90;;;29.60;68.50;;;;;;4995268;28;20317;-73
2022/08/08 11:05:50;;;;;;;1.33;1.10;;;29.80;66.10;;;;;;4994830;28;20245;-72
2022/08/08 11:08:27;;;;;;;1.17;1.00;;;29.90;65.00;;;;;;4999831;28;20221;-70
2022/08/08 11:11:25;;;;;;;1.67;1.10;;;30.10;64.10;;;;;;4995067;28;20203;-72
2022/08/08 11:13:54;;;;;;;1.50;1.20;;;30.30;62.70;;;;;;4995550;28;20257;-72
2022/08/08 11:16:26;;;;;;;2.45;1.10;;;30.40;65.40;;;;;;4996405;28;20199;-72
2022/08/08 11:18:56;;;;;;;1.20;1.05;;;30.50;63.70;;;;;;4997745;28;20326;-71
2022/08/08 11:21:23;;;;;;;1.30;1.00;;;30.60;63.80;;;;;;4998648;28;20384;-71
2022/08/08 11:23:52;;;;;;;1.35;1.10;;;30.70;63.10;;;;;;5002210;28;20175;-72
2022/08/08 11:26:20;;;;;;;1.85;1.20;;;30.70;63.70;;;;;;4994826;28;20202;-71
2022/08/08 11:28:48;;;;;;;2.00;1.10;;;30.80;62.20;;;;;;4997233;28;20281;-72
2022/08/08 11:31:15;;;;;;;2.20;1.30;;;30.90;61.60;;;;;;4997646;28;20191;-70
2022/08/08 11:33:47;;;;;;;2.28;1.33;;;31.00;61.70;;;;;;4995876;28;20386;-72
2022/08/08 11:36:14;;;;;;;1.48;1.02;;;31.10;60.20;;;;;;4994784;28;20240;-71
2022/08/08 11:38:45;;;;;;;1.70;1.05;;;31.20;60.90;;;;;;4996158;28;20187;-72
2022/08/08 11:41:11;;;;;;;1.20;1.05;;;31.20;59.60;;;;;;4997310;28;20209;-71
2022/08/08 11:43:40;;;;;;;1.48;1.20;;;31.20;58.90;;;;;;4996256;28;20290;-72
2022/08/08 11:46:08;;;;;;;1.50;0.95;;;31.10;58.30;;;;;;4998036;28;20206;-72
2022/08/08 11:48:37;;;;;;;1.30;1.10;;;31.10;58.40;;;;;;4991734;28;20171;-71
2022/08/08 11:51:07;;;;;;;1.60;1.05;;;31.10;58.20;;;;;;4997649;28;20171;-71
2022/08/08 11:53:36;;;;;;;1.27;0.90;;;31.20;58.40;;;;;;4992641;28;20206;-72
2022/08/08 11:56:04;;;;;;;2.00;1.20;;;31.30;57.40;;;;;;4993861;28;20195;-71
2022/08/08 11:58:35;;;;;;;1.45;1.10;;;31.40;57.40;;;;;;4996100;28;20285;-72
2022/08/08 12:01:04;;;;;;;1.50;1.10;;;31.50;56.50;;;;;;4996403;28;20217;-72
2022/08/08 12:03:37;;;;;;;4.40;1.33;;;31.50;57.00;;;;;;4998533;28;20273;-72
2022/08/08 12:06:20;;;;;;;1.58;1.30;;;31.60;55.40;;;;;;4993879;28;20268;-70
2022/08/08 12:09:08;;;;;;;1.52;1.10;;;31.70;54.70;;;;;;5134431;27;20654;-71
2022/08/08 12:11:38;;;;;;;1.42;1.00;;;31.70;54.10;;;;;;5122445;28;20170;-71
2022/08/08 12:14:06;;;;;;;1.27;1.00;;;31.70;53.00;;;;;;5115172;28;20174;-70
2022/08/08 12:16:32;;;;;;;2.05;1.00;;;31.70;53.80;;;;;;5118729;28;20223;-71
2022/08/08 12:19:00;;;;;;;1.70;1.00;;;31.80;54.40;;;;;;5115639;28;20206;-72
2022/08/08 12:21:31;;;;;;;2.03;1.05;;;31.90;52.90;;;;;;5112299;28;20188;-72
2022/08/08 12:24:07;;;;;;;2.92;1.00;;;31.90;52.70;;;;;;5118640;28;20473;-72
2022/08/08 12:26:44;;;;;;;1.42;1.20;;;31.90;47.80;;;;;;5116846;28;20769;-71
2022/08/08 12:29:22;;;;;;;1.40;1.08;;;32.00;50.80;;;;;;5113050;28;20177;-72
2022/08/08 12:32:14;;;;;;;1.42;1.00;;;32.00;49.50;;;;;;5115088;28;20235;-72
2022/08/08 12:34:49;;;;;;;2.00;1.10;;;32.00;50.00;;;;;;5119287;28;20282;-71
2022/08/08 12:37:25;;;;;;;1.10;0.90;;;32.10;51.60;;;;;;5115112;28;20200;-72
2022/08/08 12:39:51;;;;;;;1.10;1.00;;;32.10;50.50;;;;;;5113304;28;20302;-72
2022/08/08 12:42:17;;;;;;;2.78;1.20;;;32.10;49.80;;;;;;5113045;28;20182;-72
2022/08/08 12:44:44;;;;;;;1.50;1.13;;;32.10;50.10;;;;;;5113480;28;20194;-72
2022/08/08 12:47:10;;;;;;;1.60;1.10;;;32.20;50.50;;;;;;5115190;28;20198;-72
2022/08/08 12:49:43;;;;;;;1.85;1.15;;;32.20;48.90;;;;;;5112626;28;20181;-72
2022/08/08 12:52:20;;;;;;;1.65;1.20;;;32.30;49.30;;;;;;5114074;28;20190;-71
2022/08/08 12:54:46;;;;;;;1.08;0.90;;;32.30;48.50;;;;;;5114002;28;20202;-73
2022/08/08 12:57:18;;;;;;;1.30;1.00;;;32.30;50.30;;;;;;5113413;28;20236;-72
2022/08/08 12:59:51;;;;;;;1.20;1.10;;;32.40;49.40;;;;;;5112322;28;20181;-72
2022/08/08 13:02:32;;;;;;;1.33;1.20;;;32.40;49.70;;;;;;5115873;28;20186;-73
2022/08/08 13:05:00;;;;;;;1.25;1.00;;;32.50;47.70;;;;;;5120253;28;20174;-72
2022/08/08 13:07:55;;;;;;;3.17;1.23;;;32.50;48.60;;;;;;5112182;28;20213;-72
2022/08/08 13:10:20;;;;;;;2.03;1.40;;;32.60;47.60;;;;;;5110939;28;20210;-72
2022/08/08 13:12:49;;;;;;;1.88;1.40;;;32.60;48.30;;;;;;5111599;28;20359;-71
2022/08/08 13:15:17;;;;;;;1.63;1.20;;;32.70;47.90;;;;;;5114977;28;20244;-72
2022/08/08 13:17:43;;;;;;;1.40;1.30;;;32.70;48.30;;;;;;5117391;28;20177;-71
2022/08/08 13:20:18;;;;;;;1.58;1.20;;;32.80;47.90;;;;;;5119113;28;20189;-71
2022/08/08 13:22:47;;;;;;;1.30;1.20;;;32.80;46.60;;;;;;5102709;28;20194;-72
2022/08/08 13:25:19;;;;;;;1.50;1.30;;;32.80;47.00;;;;;;5098277;28;20269;-71
2022/08/08 13:27:54;;;;;;;1.30;1.20;;;32.70;45.80;;;;;;5102779;28;20238;-72